This is the latest recevied weather packets stored in our database for station/object DH1NAI-6. If no packets are shown the sender has not sent any weather packets the latest 10 day(s).
| Time | Temp. | Humidity | Pressure | Rain* | Wind** | Luminosity | Snow |
|---|---|---|---|---|---|---|---|
| 1787754512 | 22.78° C | 67% | 1016.1 hPa | 0 mm | - | 124 W/m² | - |
| 1787753910 | 23.33° C | 67% | 1016.3 hPa | 0 mm | - | 130 W/m² | - |
| 1787753301 | 21.11° C | 74% | 1015.9 hPa | 0 mm | - | 134 W/m² | - |
| 1787752677 | 20.56° C | 75% | 1016.3 hPa | 0 mm | - | 57 W/m² | - |
| 1787752053 | 21.11° C | 74% | 1016 hPa | 0 mm | - | 45 W/m² | - |
| 1787751446 | 20.56° C | 74% | 1016.3 hPa | 0 mm | - | 52 W/m² | - |
| 1787750821 | 21.11° C | 76% | 1016.2 hPa | 0 mm | - | 74 W/m² | - |
| 1787750198 | 21.67° C | 72% | 1016.2 hPa | 0 mm | - | 58 W/m² | - |
| 1787749590 | 20.56° C | 76% | 1016.2 hPa | 0 mm | - | 196 W/m² | - |
| 1787748982 | 21.11° C | 74% | 1016.3 hPa | 0 mm | - | 196 W/m² | - |
| 1787748374 | 21.11° C | 76% | 1016 hPa | 0 mm | - | 56 W/m² | - |
| 1787747766 | 19.44° C | 81% | 1016.2 hPa | 0 mm | - | 88 W/m² | - |
| 1787747157 | 20° C | 80% | 1016.4 hPa | 0 mm | - | 76 W/m² | - |
| 1787746549 | 20° C | 83% | 1016.5 hPa | 0 mm | - | 62 W/m² | - |
| 1787745926 | 20° C | 82% | 1016.3 hPa | 0 mm | - | 117 W/m² | - |
| 1787745318 | 20° C | 83% | 1016.4 hPa | 0 mm | - | 103 W/m² | - |
| 1787744709 | 20° C | 84% | 1016.3 hPa | 0 mm | - | 88 W/m² | - |
| 1787744102 | 18.89° C | 86% | 1016.3 hPa | 0 mm | - | 103 W/m² | - |
| 1787743494 | 18.33° C | 87% | 1016.4 hPa | 0 mm | - | 111 W/m² | - |
| 1787742886 | 17.22° C | 91% | 1016.3 hPa | 0 mm | - | 90 W/m² | - |
| 1787742272 | 17.22° C | 92% | 1016.2 hPa | 0 mm | - | 51 W/m² | - |
| 1787741670 | 17.22° C | 92% | 1016.3 hPa | 0 mm | - | 24 W/m² | - |
| 1787741062 | 17.78° C | 89% | 1016.2 hPa | 0 mm | - | 25 W/m² | - |
| 1787740437 | 17.22° C | 91% | 1016.3 hPa | 0 mm | - | 53 W/m² | - |
| 1787739814 | 16.67° C | 91% | 1016.3 hPa | 0 mm | - | 46 W/m² | - |
* Rain latest hour (hover to see other rain measurements)
** Current wind speed in m/s (hover to see current wind gust speed)